Time;durP1;ratioP1;P1;durP2;ratioP2;P2;SDS_P1;SDS_P2;PMS_P1;PMS_P2;Temp;Humidity;BMP_temperature;BMP_pressure;BME280_temperature;BME280_humidity;BME280_pressure;Samples;Min_cycle;Max_cycle;Signal;HPM_P1;HPM_P2
2022/11/14 00:08:24;;;;;;;12.40;8.80;;;3.30;13.80;;;;;;5074495;28;20244;-89
2022/11/14 00:11:43;;;;;;;12.88;9.45;;;3.30;11.40;;;;;;5090065;28;20207;-90
2022/11/14 00:18:19;;;;;;;15.38;8.85;;;3.30;11.60;;;;;;5090241;28;20169;-90
2022/11/14 00:21:13;;;;;;;13.55;8.75;;;3.30;13.60;;;;;;5073269;28;20202;-90
2022/11/14 00:27:01;;;;;;;15.68;8.70;;;3.20;11.60;;;;;;5095009;28;20173;-90
2022/11/14 00:36:49;;;;;;;12.88;8.38;;;3.10;9.70;;;;;;5074304;28;20190;-90
2022/11/14 00:39:26;;;;;;;12.02;8.85;;;3.10;9.70;;;;;;5074264;28;20202;-90
2022/11/14 00:42:13;;;;;;;11.43;8.70;;;3.20;7.00;;;;;;5078546;28;20197;-89
2022/11/14 00:45:08;;;;;;;16.17;9.43;;;3.00;8.50;;;;;;5083077;28;20187;-87
2022/11/14 00:54:26;;;;;;;15.15;9.65;;;2.90;5.40;;;;;;5073833;28;20657;-87
2022/11/14 01:00:26;;;;;;;12.20;8.90;;;2.90;5.50;;;;;;5082068;28;20181;-87
2022/11/14 01:06:15;;;;;;;13.55;9.30;;;2.80;3.30;;;;;;5091428;28;20718;-86
2022/11/14 01:09:13;;;;;;;14.98;10.57;;;2.70;4.90;;;;;;5077189;28;20218;-86
2022/11/14 01:15:01;;;;;;;17.05;9.10;;;2.70;5.10;;;;;;5088924;28;20197;-87
2022/11/14 01:20:49;;;;;;;14.50;9.95;;;2.50;5.00;;;;;;5080465;28;20201;-86
2022/11/14 01:26:38;;;;;;;18.52;10.18;;;2.50;5.90;;;;;;5087279;28;20188;-86
2022/11/14 01:36:31;;;;;;;18.75;11.32;;;2.40;4.70;;;;;;5097678;28;20177;-90
2022/11/14 01:43:16;;;;;;;18.88;10.57;;;2.30;5.30;;;;;;5085670;28;20194;-90
2022/11/14 01:49:11;;;;;;;15.43;10.25;;;2.30;4.60;;;;;;5015493;28;20251;-90
2022/11/14 01:55:01;;;;;;;16.52;10.18;;;2.30;2.10;;;;;;5014231;28;20709;-90
2022/11/14 02:00:48;;;;;;;15.55;9.52;;;2.20;1.20;;;;;;4998328;28;20247;-86
2022/11/14 02:07:27;;;;;;;14.45;9.98;;;2.20;2.60;;;;;;5014408;28;20228;-86
2022/11/14 02:20:41;;;;;;;15.10;10.25;;;1.90;5.50;;;;;;5050195;28;20617;-86
2022/11/14 02:33:20;;;;;;;16.45;10.95;;;1.80;2.80;;;;;;5075949;28;20669;-86
2022/11/14 02:43:07;;;;;;;24.85;12.57;;;1.70;6.00;;;;;;5087666;28;20182;-86
2022/11/14 02:45:33;;;;;;;62.88;22.35;;;1.70;7.00;;;;;;5079422;28;20178;-89
2022/11/14 02:55:20;;;;;;;20.75;11.82;;;1.80;10.20;;;;;;5079136;28;20257;-90
2022/11/14 03:01:31;;;;;;;19.67;12.95;;;1.90;8.50;;;;;;5075605;28;20208;-87
2022/11/14 03:07:19;;;;;;;21.08;12.27;;;2.00;3.50;;;;;;5075702;28;20209;-86
2022/11/14 03:09:50;;;;;;;23.87;12.63;;;2.00;2.00;;;;;;5083288;28;20230;-86
2022/11/14 03:12:32;;;;;;;23.80;13.23;;;2.00;2.20;;;;;;5094521;28;20173;-86
2022/11/14 03:14:57;;;;;;;22.25;13.00;;;2.00;3.20;;;;;;5085745;28;20294;-86
2022/11/14 03:17:29;;;;;;;19.73;11.93;;;2.10;1.90;;;;;;5085322;28;20653;-86
2022/11/14 03:23:43;;;;;;;27.88;12.20;;;2.10;2.10;;;;;;5076002;28;20569;-86
2022/11/14 03:30:08;;;;;;;32.08;13.60;;;2.10;3.80;;;;;;5084408;28;20205;-86
2022/11/14 03:32:56;;;;;;;32.50;12.85;;;2.10;1.90;;;;;;5074439;28;20171;-90
2022/11/14 03:38:44;;;;;;;31.58;13.25;;;2.00;1.00;;;;;;5087910;28;20677;-89
2022/11/14 03:45:19;;;;;;;25.05;12.52;;;2.00;1.00;;;;;;5076954;28;20504;-90
2022/11/14 03:47:56;;;;;;;22.13;12.82;;;2.00;1.00;;;;;;5079402;28;20209;-86
2022/11/14 03:54:25;;;;;;;24.17;12.70;;;2.10;1.00;;;;;;5082531;28;20260;-86
2022/11/14 04:00:32;;;;;;;27.08;12.40;;;2.00;1.00;;;;;;5076497;28;20185;-86
2022/11/14 04:06:19;;;;;;;30.42;12.10;;;1.90;1.00;;;;;;5088060;28;20192;-86
2022/11/14 04:12:25;;;;;;;24.80;13.57;;;1.80;1.00;;;;;;5084780;28;20189;-86
2022/11/14 04:31:41;;;;;;;20.30;12.05;;;1.60;1.00;;;;;;5085918;28;20295;-86
2022/11/14 04:34:37;;;;;;;20.80;12.63;;;1.60;1.00;;;;;;5076427;28;20183;-85
2022/11/14 04:37:03;;;;;;;16.95;11.80;;;1.70;1.00;;;;;;5073672;28;20578;-78
2022/11/14 04:39:38;;;;;;;18.07;11.90;;;1.70;1.00;;;;;;5094615;28;20211;-78
2022/11/14 04:42:26;;;;;;;17.98;12.10;;;1.80;1.00;;;;;;5084601;28;20648;-79
2022/11/14 04:44:54;;;;;;;15.23;11.60;;;1.90;1.00;;;;;;5080032;28;20190;-77
2022/11/14 04:47:20;;;;;;;14.82;10.65;;;1.90;1.00;;;;;;5080311;28;20296;-81
2022/11/14 04:50:19;;;;;;;17.63;12.00;;;2.00;1.00;;;;;;5097316;28;20260;-81
2022/11/14 04:53:02;;;;;;;20.20;11.90;;;2.20;1.00;;;;;;5092564;28;20182;-82
2022/11/14 04:55:32;;;;;;;15.18;11.40;;;2.30;1.00;;;;;;5096187;28;20173;-81
2022/11/14 04:58:14;;;;;;;17.25;11.88;;;2.30;1.00;;;;;;5101026;28;20173;-81
2022/11/14 05:01:19;;;;;;;15.73;10.95;;;2.50;1.00;;;;;;5077265;28;20182;-82
2022/11/14 05:03:50;;;;;;;16.30;10.77;;;2.60;1.00;;;;;;5081934;28;20186;-77
2022/11/14 05:06:26;;;;;;;15.57;10.75;;;2.60;1.00;;;;;;5094137;28;20689;-77
2022/11/14 05:09:02;;;;;;;14.32;10.75;;;2.70;1.00;;;;;;5083351;28;20558;-78
2022/11/14 05:11:28;;;;;;;14.43;11.20;;;2.80;1.00;;;;;;5097293;28;20174;-78
2022/11/14 05:13:53;;;;;;;16.47;12.10;;;2.90;1.00;;;;;;5083207;28;20209;-78
2022/11/14 05:16:20;;;;;;;15.70;11.17;;;2.90;1.00;;;;;;5083202;28;20508;-77
2022/11/14 05:19:02;;;;;;;19.52;10.93;;;3.00;1.00;;;;;;5078862;28;20574;-77
2022/11/14 05:21:32;;;;;;;16.55;10.65;;;3.00;1.00;;;;;;5084204;28;20166;-77
2022/11/14 05:24:02;;;;;;;15.98;11.45;;;3.00;1.00;;;;;;5080706;28;20226;-77
2022/11/14 05:26:38;;;;;;;15.38;11.15;;;2.90;1.00;;;;;;5088490;28;20172;-77
2022/11/14 05:29:08;;;;;;;15.50;11.68;;;3.00;1.00;;;;;;5093033;28;20186;-77
2022/11/14 05:35:32;;;;;;;13.27;10.20;;;3.10;1.00;;;;;;5081113;28;20189;-81
2022/11/14 05:38:19;;;;;;;14.77;10.85;;;3.20;1.00;;;;;;5078668;28;20212;-81
2022/11/14 05:41:15;;;;;;;16.52;11.77;;;3.40;1.00;;;;;;5087050;28;20189;-82
2022/11/14 05:44:04;;;;;;;12.98;10.23;;;3.40;1.00;;;;;;5078775;28;20178;-82
2022/11/14 05:47:19;;;;;;;17.40;11.60;;;3.50;1.00;;;;;;5085096;28;20199;-81
2022/11/14 05:53:07;;;;;;;17.25;11.38;;;3.70;1.00;;;;;;5092207;28;20612;-81
2022/11/14 05:59:08;;;;;;;15.57;10.55;;;3.80;1.00;;;;;;5079791;28;20266;-82
2022/11/14 06:04:55;;;;;;;15.57;11.02;;;4.00;1.00;;;;;;5086032;28;20193;-78
2022/11/14 06:10:50;;;;;;;13.90;10.43;;;4.00;1.00;;;;;;5094972;28;20204;-80
2022/11/14 06:13:32;;;;;;;16.20;10.73;;;4.10;1.00;;;;;;5085130;28;20175;-80
2022/11/14 06:16:03;;;;;;;17.48;10.38;;;4.10;1.00;;;;;;5078071;28;20539;-76
2022/11/14 06:18:45;;;;;;;15.20;10.77;;;4.20;1.00;;;;;;5089493;28;20166;-75
2022/11/14 06:21:16;;;;;;;14.68;10.90;;;4.30;1.00;;;;;;5082629;28;20217;-76
2022/11/14 06:23:42;;;;;;;14.05;10.30;;;4.30;1.00;;;;;;5092060;28;20272;-75
2022/11/14 06:26:29;;;;;;;19.52;10.93;;;4.40;1.00;;;;;;5092079;28;20274;-75
2022/11/14 06:28:58;;;;;;;17.13;11.52;;;4.40;1.00;;;;;;5079135;28;20194;-76
2022/11/14 06:31:26;;;;;;;17.00;11.60;;;4.50;1.00;;;;;;5083218;28;20247;-76
2022/11/14 06:34:03;;;;;;;18.48;12.50;;;4.60;1.00;;;;;;5083010;28;20243;-76
2022/11/14 06:36:44;;;;;;;19.65;11.65;;;4.70;1.00;;;;;;5082421;28;20179;-76
2022/11/14 06:39:26;;;;;;;17.75;11.65;;;4.80;1.00;;;;;;5085241;28;20661;-76
2022/11/14 06:42:08;;;;;;;20.88;11.80;;;4.80;1.00;;;;;;5093281;28;20535;-76
2022/11/14 06:44:44;;;;;;;16.83;11.10;;;4.90;1.00;;;;;;5076189;28;20183;-76
2022/11/14 06:47:14;;;;;;;21.02;11.82;;;5.00;1.00;;;;;;5077021;28;20174;-76
2022/11/14 06:49:40;;;;;;;22.50;13.33;;;5.00;1.00;;;;;;5077300;28;20731;-76
2022/11/14 06:52:09;;;;;;;24.83;11.80;;;5.10;1.00;;;;;;5075005;28;20417;-76
2022/11/14 06:54:42;;;;;;;22.63;13.98;;;5.10;1.00;;;;;;5081042;28;20204;-86
2022/11/14 06:57:08;;;;;;;23.45;14.13;;;5.30;1.00;;;;;;5085582;28;20320;-86
2022/11/14 06:59:39;;;;;;;27.73;15.20;;;5.30;1.00;;;;;;5084680;28;20186;-84
2022/11/14 07:02:05;;;;;;;29.30;15.90;;;5.40;2.70;;;;;;5080681;28;20459;-86
2022/11/14 07:04:50;;;;;;;31.33;17.30;;;5.50;4.80;;;;;;5078081;28;20915;-85
2022/11/14 07:07:56;;;;;;;32.70;18.13;;;5.40;6.40;;;;;;5083466;28;20440;-88
2022/11/14 07:10:27;;;;;;;28.73;15.87;;;5.70;7.80;;;;;;5073962;28;20472;-89
2022/11/14 07:12:57;;;;;;;42.80;17.77;;;5.80;8.70;;;;;;5080496;28;20419;-86
2022/11/14 07:15:27;;;;;;;38.10;17.53;;;5.90;8.70;;;;;;5073580;28;20413;-89
2022/11/14 07:17:58;;;;;;;37.40;18.73;;;6.10;7.90;;;;;;5078730;28;20440;-83
2022/11/14 07:20:45;;;;;;;31.70;18.23;;;6.20;7.30;;;;;;5088901;28;20481;-80
2022/11/14 07:23:10;;;;;;;39.00;19.83;;;6.10;6.00;;;;;;5074564;28;20451;-90
2022/11/14 07:25:36;;;;;;;35.37;18.63;;;6.10;6.00;;;;;;5089385;28;21092;-90
2022/11/14 07:28:44;;;;;;;40.27;19.77;;;6.30;4.90;;;;;;5093764;28;20684;-90
2022/11/14 07:31:26;;;;;;;39.33;20.17;;;6.30;4.30;;;;;;5079868;28;20182;-90
2022/11/14 07:40:38;;;;;;;41.10;20.63;;;6.50;1.00;;;;;;5074726;28;20424;-88
2022/11/14 07:43:04;;;;;;;41.07;21.00;;;6.60;1.00;;;;;;5079263;28;20455;-88
2022/11/14 07:46:14;;;;;;;35.67;19.00;;;6.70;1.00;;;;;;5073776;28;20897;-88
2022/11/14 07:48:51;;;;;;;42.07;20.70;;;6.70;1.00;;;;;;5088277;28;20264;-89
2022/11/14 07:51:18;;;;;;;36.80;18.43;;;6.80;1.00;;;;;;5079560;28;20782;-89
2022/11/14 07:54:26;;;;;;;38.70;20.30;;;6.80;1.00;;;;;;5078795;28;20440;-89
2022/11/14 07:57:26;;;;;;;38.57;18.57;;;6.90;1.00;;;;;;5080379;28;20435;-89
2022/11/14 08:00:09;;;;;;;37.17;18.73;;;7.00;1.00;;;;;;5078621;28;20428;-88
2022/11/14 08:02:45;;;;;;;36.90;18.77;;;7.10;1.00;;;;;;5078577;28;20432;-88
2022/11/14 08:05:27;;;;;;;33.17;17.97;;;7.20;1.00;;;;;;5084940;28;20428;-88
2022/11/14 08:08:08;;;;;;;32.83;16.23;;;7.30;1.00;;;;;;5081848;28;20451;-88
2022/11/14 08:10:34;;;;;;;43.30;17.20;;;7.50;1.00;;;;;;5089163;28;20531;-88
2022/11/14 08:13:02;;;;;;;38.27;17.00;;;7.50;1.00;;;;;;5082745;28;20457;-88
2022/11/14 08:15:39;;;;;;;31.53;14.70;;;7.80;1.00;;;;;;5087996;28;20178;-88
2022/11/14 08:18:05;;;;;;;31.87;14.73;;;7.70;1.00;;;;;;5090658;28;20439;-88
2022/11/14 08:20:42;;;;;;;33.03;15.93;;;7.80;1.00;;;;;;5072835;28;20475;-89
2022/11/14 08:23:09;;;;;;;32.40;15.70;;;7.90;1.00;;;;;;5075616;28;20490;-88
2022/11/14 08:25:35;;;;;;;31.63;15.30;;;8.00;1.00;;;;;;5079518;28;20436;-88
2022/11/14 08:28:01;;;;;;;30.80;13.60;;;8.00;1.00;;;;;;5083843;28;20858;-88
2022/11/14 08:30:27;;;;;;;33.23;15.10;;;8.20;1.00;;;;;;5086593;28;20775;-88
2022/11/14 08:32:59;;;;;;;31.63;14.03;;;8.00;1.00;;;;;;5082129;28;20417;-88
2022/11/14 08:35:25;;;;;;;30.73;15.30;;;8.00;1.00;;;;;;5072810;28;20190;-88
2022/11/14 08:37:50;;;;;;;28.23;13.80;;;8.10;1.00;;;;;;5079211;28;20916;-88
2022/11/14 08:40:16;;;;;;;31.40;14.67;;;8.10;1.00;;;;;;5076392;28;20240;-89
2022/11/14 08:42:42;;;;;;;31.57;14.90;;;8.10;1.00;;;;;;5074278;28;20692;-89
2022/11/14 08:45:08;;;;;;;31.93;14.43;;;8.20;1.00;;;;;;5075762;28;20182;-89
2022/11/14 08:47:33;;;;;;;30.17;13.67;;;8.30;1.00;;;;;;5081357;28;20261;-88
2022/11/14 08:49:59;;;;;;;28.50;15.00;;;8.30;1.00;;;;;;5084647;28;20457;-91
2022/11/14 08:52:25;;;;;;;29.50;14.07;;;8.50;1.00;;;;;;5086380;28;20193;-91
2022/11/14 08:54:51;;;;;;;27.10;13.90;;;8.40;1.00;;;;;;5081398;28;20184;-91
2022/11/14 08:57:16;;;;;;;30.20;14.13;;;8.50;1.00;;;;;;5086918;28;20223;-91
2022/11/14 08:59:42;;;;;;;30.23;13.83;;;8.50;1.00;;;;;;5079810;28;20437;-91
2022/11/14 09:02:13;;;;;;;26.63;13.60;;;8.60;1.00;;;;;;5074932;28;20236;-91
2022/11/14 09:04:39;;;;;;;34.87;14.60;;;8.60;1.00;;;;;;5072468;28;20187;-88
2022/11/14 09:07:05;;;;;;;34.53;15.73;;;8.50;1.00;;;;;;5084294;28;20956;-87
2022/11/14 09:09:31;;;;;;;27.20;13.67;;;8.60;1.00;;;;;;5086660;28;20711;-89
2022/11/14 09:11:57;;;;;;;28.00;13.70;;;8.50;1.00;;;;;;5093252;28;20891;-88
2022/11/14 09:14:23;;;;;;;26.30;14.13;;;8.50;1.00;;;;;;5086706;28;20428;-88
2022/11/14 09:16:48;;;;;;;26.30;13.80;;;8.50;1.00;;;;;;5080080;28;20554;-88
2022/11/14 09:19:14;;;;;;;29.63;12.53;;;8.60;1.00;;;;;;5082459;28;20179;-89
2022/11/14 09:21:40;;;;;;;26.10;12.67;;;8.60;1.00;;;;;;5084621;28;20192;-91
2022/11/14 09:24:06;;;;;;;27.00;13.40;;;8.70;1.00;;;;;;5075284;28;20285;-91
2022/11/14 09:26:31;;;;;;;23.83;12.50;;;8.80;1.00;;;;;;5082390;28;20183;-90
2022/11/14 09:28:57;;;;;;;24.70;12.67;;;8.90;1.00;;;;;;5077633;28;20449;-91
2022/11/14 09:31:23;;;;;;;31.60;13.10;;;9.00;1.00;;;;;;5092259;28;20174;-90
2022/11/14 09:33:49;;;;;;;26.67;12.33;;;9.10;1.00;;;;;;5089494;28;20458;-90
2022/11/14 09:36:17;;;;;;;21.00;11.83;;;9.20;1.00;;;;;;5078567;28;20228;-91
2022/11/14 09:38:43;;;;;;;23.47;13.03;;;9.40;1.00;;;;;;5086827;28;20649;-90
2022/11/14 09:41:59;;;;;;;23.23;11.50;;;9.50;1.00;;;;;;5075361;28;20425;-91
2022/11/14 09:44:56;;;;;;;22.80;11.47;;;9.60;1.00;;;;;;4998172;28;20430;-90
2022/11/14 09:47:43;;;;;;;23.83;12.10;;;9.70;1.00;;;;;;4939785;29;20431;-91
2022/11/14 09:50:29;;;;;;;22.17;11.37;;;9.80;1.00;;;;;;4956017;28;20562;-88
2022/11/14 09:52:56;;;;;;;18.47;10.77;;;9.80;1.00;;;;;;4956382;29;20518;-87
2022/11/14 09:55:27;;;;;;;18.07;10.20;;;9.90;1.00;;;;;;4939286;28;20419;-87
2022/11/14 09:57:57;;;;;;;17.20;10.70;;;10.10;1.00;;;;;;4936869;28;21158;-87
2022/11/14 10:00:35;;;;;;;18.83;10.37;;;10.20;1.00;;;;;;4954711;29;20489;-88
2022/11/14 10:03:20;;;;;;;21.93;11.00;;;10.00;1.00;;;;;;4956391;29;20434;-87
2022/11/14 10:06:21;;;;;;;16.83;9.80;;;10.00;1.00;;;;;;4950310;29;20547;-88
2022/11/14 10:12:56;;;;;;;18.67;10.20;;;9.80;1.00;;;;;;4854301;29;20807;-87
2022/11/14 10:15:24;;;;;;;17.37;9.80;;;9.80;1.00;;;;;;4851865;29;20514;-87
2022/11/14 10:18:29;;;;;;;15.10;9.43;;;9.80;1.00;;;;;;4874890;29;20511;-87
2022/11/14 10:21:28;;;;;;;17.63;9.70;;;9.80;1.00;;;;;;4880431;29;20437;-88
2022/11/14 10:23:57;;;;;;;20.23;9.43;;;9.80;1.00;;;;;;4902868;29;20534;-87
2022/11/14 10:26:53;;;;;;;17.50;9.80;;;9.80;1.00;;;;;;4935381;29;20467;-87
2022/11/14 10:29:49;;;;;;;20.13;10.40;;;10.00;1.00;;;;;;4919922;29;20470;-87
2022/11/14 10:32:37;;;;;;;17.50;9.83;;;9.90;1.00;;;;;;4936320;29;20470;-87
2022/11/14 10:35:15;;;;;;;19.73;10.23;;;9.90;1.00;;;;;;4924747;29;20852;-87
2022/11/14 10:38:06;;;;;;;16.20;9.30;;;9.90;1.00;;;;;;4925004;29;20415;-88
2022/11/14 10:40:53;;;;;;;16.90;9.20;;;9.90;1.00;;;;;;4924820;29;20438;-87
2022/11/14 10:44:02;;;;;;;17.10;9.87;;;10.00;1.00;;;;;;4924496;29;20440;-87
2022/11/14 10:46:51;;;;;;;14.13;8.63;;;10.00;1.00;;;;;;4997422;28;20416;-87
2022/11/14 10:49:24;;;;;;;17.30;9.23;;;10.10;1.00;;;;;;5012177;28;20480;-87
2022/11/14 10:55:16;;;;;;;14.20;8.60;;;10.50;1.00;;;;;;4996019;28;20477;-87
2022/11/14 10:58:20;;;;;;;14.33;9.00;;;10.70;1.00;;;;;;5050481;28;20421;-87
2022/11/14 11:04:27;;;;;;;22.40;8.53;;;11.20;1.00;;;;;;5081684;28;20753;-87
2022/11/14 11:06:55;;;;;;;13.30;8.87;;;11.50;1.00;;;;;;5081668;28;20431;-87
2022/11/14 11:12:22;;;;;;;12.80;7.87;;;11.70;1.00;;;;;;5084026;28;20969;-87
2022/11/14 11:15:12;;;;;;;14.93;7.80;;;11.80;1.00;;;;;;5085599;28;20443;-87
2022/11/14 11:17:59;;;;;;;12.03;7.87;;;11.90;1.00;;;;;;5082321;28;20429;-87
2022/11/14 11:20:37;;;;;;;13.83;8.10;;;12.10;1.00;;;;;;5088227;28;20481;-87
2022/11/14 11:23:44;;;;;;;11.30;7.43;;;12.20;1.00;;;;;;5077190;28;20464;-89
2022/11/14 11:30:08;;;;;;;14.20;8.63;;;12.40;1.00;;;;;;5078136;28;20473;-89
2022/11/14 11:32:34;;;;;;;11.53;7.50;;;12.40;1.00;;;;;;5083044;28;20927;-89
2022/11/14 11:35:38;;;;;;;16.93;7.50;;;12.40;1.00;;;;;;5095173;28;20411;-88
2022/11/14 11:38:39;;;;;;;11.93;7.77;;;12.30;1.00;;;;;;5080541;28;20175;-89
2022/11/14 11:44:54;;;;;;;11.50;7.50;;;12.40;1.00;;;;;;5082039;28;20443;-89
2022/11/14 11:47:30;;;;;;;12.17;7.90;;;12.70;1.00;;;;;;5077032;28;20437;-89
2022/11/14 11:49:56;;;;;;;10.83;7.50;;;12.70;1.00;;;;;;5106197;28;20453;-89
2022/11/14 11:52:33;;;;;;;10.27;7.10;;;12.70;1.00;;;;;;5107142;28;20405;-87
2022/11/14 11:55:17;;;;;;;9.20;7.20;;;12.70;1.00;;;;;;5072654;28;20436;-88
2022/11/14 11:57:50;;;;;;;11.40;6.97;;;12.60;1.00;;;;;;5073587;28;20417;-88
2022/11/14 12:00:19;;;;;;;9.13;5.27;;;12.70;1.00;;;;;;5081391;28;20946;-88
2022/11/14 12:03:32;;;;;;;9.47;6.60;;;12.80;1.00;;;;;;5090627;28;20432;-88
2022/11/14 12:06:24;;;;;;;8.60;6.77;;;13.00;1.00;;;;;;5081033;28;20420;-89
2022/11/14 12:09:11;;;;;;;11.90;6.77;;;13.20;1.00;;;;;;5079798;28;20504;-88
2022/11/14 12:12:04;;;;;;;10.87;6.47;;;13.40;1.00;;;;;;5085289;28;20432;-89
2022/11/14 12:18:17;;;;;;;8.50;6.30;;;14.00;1.00;;;;;;5081491;28;20395;-89
2022/11/14 12:24:22;;;;;;;8.43;5.47;;;13.90;1.00;;;;;;5074072;28;21119;-87
2022/11/14 12:27:05;;;;;;;6.50;5.30;;;14.00;1.00;;;;;;5077978;28;20846;-87
2022/11/14 12:29:51;;;;;;;11.33;5.63;;;14.10;1.00;;;;;;5083261;28;20596;-87
2022/11/14 12:39:01;;;;;;;9.20;4.27;;;14.00;1.00;;;;;;5080635;28;20446;-87
2022/11/14 12:48:32;;;;;;;5.70;4.80;;;13.50;1.00;;;;;;5073658;28;20903;-88
2022/11/14 12:51:27;;;;;;;6.73;4.90;;;13.40;1.00;;;;;;5089224;28;20478;-87
2022/11/14 13:01:20;;;;;;;5.87;4.40;;;13.20;1.00;;;;;;5082823;28;20441;-87
2022/11/14 13:04:16;;;;;;;16.77;5.23;;;13.10;1.00;;;;;;4955392;28;20455;-88
2022/11/14 13:07:17;;;;;;;5.47;4.17;;;13.10;1.00;;;;;;4952716;28;20425;-76
2022/11/14 13:10:16;;;;;;;5.50;4.07;;;13.00;1.00;;;;;;4899683;29;20567;-76
2022/11/14 13:21:47;;;;;;;5.10;3.93;;;12.80;1.00;;;;;;4888608;29;20521;-77
2022/11/14 13:24:17;;;;;;;5.53;4.27;;;12.70;1.00;;;;;;4899495;29;20920;-81
2022/11/14 13:27:06;;;;;;;4.77;4.30;;;12.70;1.00;;;;;;4883471;29;21054;-89
2022/11/14 13:29:47;;;;;;;4.50;4.10;;;12.70;1.00;;;;;;4898971;29;20476;-88
2022/11/14 13:39:26;;;;;;;4.23;3.80;;;12.70;1.00;;;;;;4899488;29;20471;-78
2022/11/14 13:42:03;;;;;;;16.17;4.60;;;12.70;1.00;;;;;;4987639;28;20436;-77
2022/11/14 13:45:06;;;;;;;6.80;4.67;;;12.70;1.00;;;;;;4985257;28;20467;-78
2022/11/14 13:47:44;;;;;;;6.80;4.50;;;12.70;1.00;;;;;;5084260;28;20502;-77
2022/11/14 13:50:31;;;;;;;5.10;4.13;;;12.60;1.00;;;;;;5091957;28;20462;-77
2022/11/14 13:52:58;;;;;;;4.17;3.77;;;12.60;1.00;;;;;;5083253;28;20478;-87
2022/11/14 13:55:38;;;;;;;6.20;4.03;;;12.60;1.00;;;;;;5081660;28;20448;-87
2022/11/14 13:58:27;;;;;;;4.50;4.10;;;12.60;1.00;;;;;;5077922;28;20769;-85
2022/11/14 14:01:28;;;;;;;4.03;3.63;;;12.50;1.00;;;;;;5087389;28;20436;-86
2022/11/14 14:04:22;;;;;;;6.10;4.50;;;12.50;1.00;;;;;;5080697;28;20479;-87
2022/11/14 14:07:09;;;;;;;6.83;4.93;;;12.40;1.00;;;;;;5076038;28;20447;-86
2022/11/14 14:09:56;;;;;;;9.00;5.37;;;12.30;1.00;;;;;;5082294;28;20642;-77
2022/11/14 14:12:49;;;;;;;12.60;5.57;;;12.20;1.00;;;;;;5076356;28;20425;-77
2022/11/14 14:15:36;;;;;;;6.80;4.60;;;12.10;1.00;;;;;;5083301;28;20491;-77
2022/11/14 14:18:08;;;;;;;6.17;5.07;;;12.10;1.00;;;;;;5075057;28;20540;-78
2022/11/14 14:20:48;;;;;;;8.70;4.47;;;11.90;1.00;;;;;;5074934;28;20417;-78
2022/11/14 14:23:55;;;;;;;6.83;5.57;;;11.90;1.00;;;;;;5083682;28;20440;-78
2022/11/14 14:26:42;;;;;;;4.83;4.10;;;11.80;1.00;;;;;;4994188;28;20499;-78
2022/11/14 14:29:45;;;;;;;5.30;4.60;;;11.70;1.00;;;;;;4995493;28;20443;-77
2022/11/14 14:32:16;;;;;;;9.87;7.23;;;11.60;1.00;;;;;;5010110;28;20423;-77
2022/11/14 14:34:42;;;;;;;6.40;4.80;;;11.60;1.00;;;;;;5012678;28;20423;-77
2022/11/14 14:37:16;;;;;;;6.87;4.63;;;11.70;1.00;;;;;;4995577;28;20981;-77
2022/11/14 14:40:01;;;;;;;7.23;4.80;;;11.60;1.00;;;;;;5000606;28;20197;-78
2022/11/14 14:42:35;;;;;;;5.90;4.07;;;11.80;1.00;;;;;;4986223;28;20440;-77
2022/11/14 14:45:02;;;;;;;7.37;4.30;;;11.80;1.00;;;;;;5002042;28;20437;-77
2022/11/14 14:47:34;;;;;;;5.87;4.53;;;11.80;1.00;;;;;;4984163;28;20940;-78
2022/11/14 14:50:07;;;;;;;6.90;4.57;;;11.80;1.00;;;;;;5004413;28;20476;-78
2022/11/14 14:52:35;;;;;;;7.47;4.57;;;11.80;1.00;;;;;;4992958;28;21060;-76
2022/11/14 14:55:01;;;;;;;4.53;4.00;;;11.80;1.00;;;;;;5001909;28;20439;-87
2022/11/14 14:57:29;;;;;;;11.03;3.90;;;11.70;1.00;;;;;;5004139;28;20978;-85
2022/11/14 15:00:29;;;;;;;5.30;4.13;;;11.70;1.00;;;;;;5007513;28;20435;-87
2022/11/14 15:02:56;;;;;;;4.63;3.60;;;11.60;1.00;;;;;;5006454;28;20429;-87
2022/11/14 15:05:27;;;;;;;4.77;4.20;;;11.70;1.00;;;;;;5035613;28;20433;-87
2022/11/14 15:07:55;;;;;;;4.57;3.57;;;11.70;1.00;;;;;;5026986;28;20454;-80
2022/11/14 15:10:31;;;;;;;6.37;3.87;;;11.60;1.00;;;;;;5012207;28;20459;-77
2022/11/14 15:12:57;;;;;;;8.23;4.20;;;11.70;1.00;;;;;;5029034;28;20930;-77
2022/11/14 15:15:27;;;;;;;4.97;4.00;;;11.70;1.00;;;;;;5030262;28;20434;-78
2022/11/14 15:17:54;;;;;;;5.20;3.73;;;11.80;1.00;;;;;;5031574;28;20443;-77
2022/11/14 15:20:29;;;;;;;6.13;3.77;;;11.80;1.00;;;;;;5021558;28;20444;-78
2022/11/14 15:23:02;;;;;;;6.90;4.00;;;11.70;1.00;;;;;;5021385;28;20434;-79
2022/11/14 15:25:28;;;;;;;5.07;3.77;;;11.70;1.00;;;;;;5029705;28;20502;-78
2022/11/14 15:27:57;;;;;;;7.80;4.10;;;11.70;1.00;;;;;;5021041;28;20442;-79
2022/11/14 15:30:33;;;;;;;7.03;3.50;;;11.80;1.00;;;;;;5031983;28;20837;-79
2022/11/14 15:33:01;;;;;;;4.10;3.37;;;11.70;1.00;;;;;;5031247;28;20424;-79
2022/11/14 15:35:30;;;;;;;6.93;3.03;;;11.70;1.00;;;;;;5014574;28;20447;-69
2022/11/14 15:38:14;;;;;;;6.43;3.63;;;11.70;1.00;;;;;;5045682;28;20793;-69
2022/11/14 15:40:40;;;;;;;4.43;3.23;;;11.70;1.00;;;;;;5078218;28;20453;-73
2022/11/14 15:43:34;;;;;;;4.67;3.83;;;11.70;1.00;;;;;;5077770;28;20465;-74
2022/11/14 15:46:00;;;;;;;6.27;3.90;;;11.70;1.00;;;;;;5072453;28;20537;-75
2022/11/14 15:48:39;;;;;;;8.30;4.27;;;11.70;1.00;;;;;;5085448;28;20445;-87
2022/11/14 15:51:05;;;;;;;4.37;3.93;;;11.70;1.00;;;;;;5086774;28;20277;-77
2022/11/14 15:53:34;;;;;;;6.73;4.23;;;11.60;1.00;;;;;;5087673;28;20538;-75
2022/11/14 15:56:03;;;;;;;4.33;3.57;;;11.60;1.00;;;;;;5093617;28;20179;-77
2022/11/14 15:58:29;;;;;;;4.83;3.33;;;11.60;1.00;;;;;;5079834;28;20421;-77
2022/11/14 16:00:58;;;;;;;3.77;3.00;;;11.60;1.00;;;;;;5073696;28;20408;-76
2022/11/14 16:03:27;;;;;;;5.40;3.80;;;11.60;1.00;;;;;;5073214;28;20167;-77
2022/11/14 16:06:09;;;;;;;5.90;3.60;;;11.60;1.00;;;;;;5074568;28;20510;-77
2022/11/14 16:08:35;;;;;;;4.70;3.90;;;11.60;1.00;;;;;;5078578;28;20441;-77
2022/11/14 16:11:10;;;;;;;8.77;3.97;;;11.70;1.00;;;;;;5080496;28;20457;-77
2022/11/14 16:13:39;;;;;;;5.10;4.03;;;11.60;1.00;;;;;;5091755;28;20683;-76
2022/11/14 16:16:09;;;;;;;7.70;3.97;;;11.60;1.00;;;;;;5093550;28;20997;-77
2022/11/14 16:18:40;;;;;;;6.73;3.77;;;11.60;1.00;;;;;;5087681;28;20508;-77
2022/11/14 16:21:12;;;;;;;9.60;3.63;;;11.60;1.00;;;;;;5073846;28;20775;-77
2022/11/14 16:23:39;;;;;;;4.93;3.70;;;11.60;1.00;;;;;;5081937;28;20421;-77
2022/11/14 16:26:16;;;;;;;9.60;4.50;;;11.60;1.00;;;;;;5076683;28;20823;-76
2022/11/14 16:28:45;;;;;;;6.60;4.33;;;11.60;1.00;;;;;;5081087;28;20852;-76
2022/11/14 16:31:22;;;;;;;6.27;4.57;;;11.50;1.00;;;;;;5077457;28;20932;-77
2022/11/14 16:33:48;;;;;;;9.60;4.57;;;11.50;1.00;;;;;;5084504;28;20432;-77
2022/11/14 16:36:13;;;;;;;7.40;4.23;;;11.50;1.00;;;;;;5074175;28;20437;-77
2022/11/14 16:38:39;;;;;;;5.90;3.60;;;11.50;1.00;;;;;;5078439;28;20661;-81
2022/11/14 16:41:06;;;;;;;8.67;3.90;;;11.40;1.00;;;;;;5076660;28;20189;-76
2022/11/14 16:43:39;;;;;;;3.93;3.50;;;11.40;1.00;;;;;;5083107;28;20177;-78
2022/11/14 16:46:10;;;;;;;5.10;3.47;;;11.30;1.00;;;;;;5078213;28;20965;-76
2022/11/14 16:48:40;;;;;;;6.80;4.10;;;11.10;1.00;;;;;;5075696;28;20440;-76
2022/11/14 16:51:05;;;;;;;5.30;4.20;;;11.00;1.00;;;;;;5078252;28;20504;-76
2022/11/14 16:53:31;;;;;;;8.13;5.60;;;11.00;1.00;;;;;;5079792;28;20420;-76
2022/11/14 16:56:04;;;;;;;10.00;4.67;;;11.00;1.00;;;;;;5085319;28;20835;-77
2022/11/14 16:58:30;;;;;;;10.40;4.97;;;11.00;1.00;;;;;;5082228;28;20265;-78
2022/11/14 17:00:58;;;;;;;8.37;5.60;;;11.00;1.00;;;;;;5078254;28;20583;-75
2022/11/14 17:03:29;;;;;;;10.10;5.33;;;11.00;1.00;;;;;;5078496;28;20562;-77
2022/11/14 17:05:55;;;;;;;7.43;5.07;;;11.00;1.00;;;;;;5084117;28;20432;-75
2022/11/14 17:08:22;;;;;;;8.30;5.50;;;11.10;1.00;;;;;;5076453;28;20490;-76
2022/11/14 17:10:47;;;;;;;10.30;5.90;;;11.10;1.00;;;;;;5086010;28;20257;-77
2022/11/14 17:13:15;;;;;;;9.50;6.17;;;11.10;1.00;;;;;;5074740;28;20432;-77
2022/11/14 17:15:41;;;;;;;9.73;5.80;;;11.10;1.00;;;;;;5086826;28;20626;-77
2022/11/14 17:18:08;;;;;;;11.70;6.37;;;11.10;1.00;;;;;;5074888;28;20448;-78
2022/11/14 17:20:40;;;;;;;9.77;6.10;;;11.10;1.00;;;;;;5073850;28;20758;-76
2022/11/14 17:23:05;;;;;;;8.23;5.80;;;11.10;1.00;;;;;;5077612;28;20969;-77
2022/11/14 17:25:33;;;;;;;11.43;5.80;;;11.10;1.00;;;;;;5086990;28;20464;-76
2022/11/14 17:27:59;;;;;;;8.73;5.80;;;11.20;1.00;;;;;;5077915;28;20194;-76
2022/11/14 17:30:28;;;;;;;12.03;6.10;;;11.30;1.00;;;;;;5075515;28;20453;-76
2022/11/14 17:32:54;;;;;;;9.37;6.00;;;11.30;1.00;;;;;;5074330;28;20179;-74
2022/11/14 17:35:20;;;;;;;11.07;6.27;;;11.40;1.00;;;;;;5080931;28;20426;-74
2022/11/14 17:37:52;;;;;;;10.93;5.70;;;11.40;1.00;;;;;;5076421;28;20460;-74
2022/11/14 17:40:17;;;;;;;11.90;5.30;;;11.40;1.00;;;;;;5086648;28;20669;-74
2022/11/14 17:42:43;;;;;;;11.10;5.40;;;11.50;1.00;;;;;;5079454;28;20510;-74
2022/11/14 17:45:16;;;;;;;8.57;5.23;;;11.50;1.00;;;;;;5091314;28;20186;-78